CheckWX is a tool to help pilots better visualize weather data.  It is not intended as a substitute for an official pre-flight weather briefing.

13:50:17 UTC

EINN METAR
Shannon Airport
Shannon, Ireland
Current

20 mins ago

EINN 151330Z 25014KT 9999 FEW007 SCT011 BKN023 17/15 Q1024 NOSIG
Observed
Sep-15 @ 13:30 UTC
Wind
  • 250° at 14 KTS
Visibility
10,000+ meters
Flight Rules
MVFR
Cloud Levels
  • Few at 700' AGL
  • Scattered at 1,100' AGL
  • Broken at 2,300' AGL
Temperature
17°C / 63°F
Dewpoint
15°C / 59°F
Humidity
88%
Altimeter
30.24" Hg
Pressure
1023.92 hPa
Previous

50 mins ago

EINN 151300Z 25015KT 9999 SCT005 BKN009 OVC012 17/15 Q1024 NOSIG
Observed
Sep-15 @ 13:00 UTC
Wind
  • 250° at 15 KTS
Visibility
10,000+ meters
Flight Rules
IFR
Cloud Levels
  • Scattered at 500' AGL
  • Broken at 900' AGL
  • Overcast at 1,200' AGL
Temperature
17°C / 63°F
Dewpoint
15°C / 59°F
Humidity
88%
Altimeter
30.24" Hg
Pressure
1023.92 hPa
Previous

1 hour ago

EINN 151230Z 24016KT 9999 FEW004 OVC008 17/16 Q1024 NOSIG
Observed
Sep-15 @ 12:30 UTC
Wind
  • 240° at 16 KTS
Visibility
10,000+ meters
Flight Rules
IFR
Cloud Levels
  • Few at 400' AGL
  • Overcast at 800' AGL
Temperature
17°C / 63°F
Dewpoint
16°C / 61°F
Humidity
94%
Altimeter
30.24" Hg
Pressure
1023.92 hPa